sensor_id;sensor_type;location;lat;lon;timestamp;P1;durP1;ratioP1;P2;durP2;ratioP2
75818;SDS011;64453;51.944;9.796;2023-10-31T00:01:24;2.87;;;2.10;;
75818;SDS011;64453;51.944;9.796;2023-10-31T00:03:51;2.83;;;2.40;;
75818;SDS011;64453;51.944;9.796;2023-10-31T00:06:18;2.73;;;2.60;;
75818;SDS011;64453;51.944;9.796;2023-10-31T00:08:46;2.40;;;2.20;;
75818;SDS011;64453;51.944;9.796;2023-10-31T00:11:13;2.33;;;2.13;;
75818;SDS011;64453;51.944;9.796;2023-10-31T00:13:41;2.73;;;2.53;;
75818;SDS011;64453;51.944;9.796;2023-10-31T00:16:08;2.50;;;2.40;;
75818;SDS011;64453;51.944;9.796;2023-10-31T00:18:36;2.30;;;2.20;;
75818;SDS011;64453;51.944;9.796;2023-10-31T00:21:03;2.43;;;2.33;;
75818;SDS011;64453;51.944;9.796;2023-10-31T00:23:30;2.80;;;2.60;;
75818;SDS011;64453;51.944;9.796;2023-10-31T00:25:59;8.33;;;2.73;;
75818;SDS011;64453;51.944;9.796;2023-10-31T00:28:26;2.63;;;2.43;;
75818;SDS011;64453;51.944;9.796;2023-10-31T00:30:53;2.20;;;2.10;;
75818;SDS011;64453;51.944;9.796;2023-10-31T00:33:20;2.80;;;2.60;;
75818;SDS011;64453;51.944;9.796;2023-10-31T00:35:47;3.17;;;2.97;;
75818;SDS011;64453;51.944;9.796;2023-10-31T00:38:14;2.50;;;2.40;;
75818;SDS011;64453;51.944;9.796;2023-10-31T00:40:41;4.33;;;2.60;;
75818;SDS011;64453;51.944;9.796;2023-10-31T00:43:10;3.13;;;2.93;;
75818;SDS011;64453;51.944;9.796;2023-10-31T00:45:37;3.50;;;3.20;;
75818;SDS011;64453;51.944;9.796;2023-10-31T00:48:04;3.00;;;2.80;;
75818;SDS011;64453;51.944;9.796;2023-10-31T00:50:31;3.90;;;3.60;;
75818;SDS011;64453;51.944;9.796;2023-10-31T00:52:58;3.07;;;2.87;;
75818;SDS011;64453;51.944;9.796;2023-10-31T00:55:25;3.93;;;3.63;;
75818;SDS011;64453;51.944;9.796;2023-10-31T00:57:52;3.50;;;3.20;;
75818;SDS011;64453;51.944;9.796;2023-10-31T01:00:21;4.50;;;4.10;;
75818;SDS011;64453;51.944;9.796;2023-10-31T01:02:48;3.63;;;3.30;;
75818;SDS011;64453;51.944;9.796;2023-10-31T01:05:16;3.90;;;3.50;;
75818;SDS011;64453;51.944;9.796;2023-10-31T01:07:43;3.10;;;2.90;;
75818;SDS011;64453;51.944;9.796;2023-10-31T01:10:11;3.70;;;3.40;;
75818;SDS011;64453;51.944;9.796;2023-10-31T01:12:37;3.97;;;3.53;;
75818;SDS011;64453;51.944;9.796;2023-10-31T01:15:05;2.70;;;2.50;;
75818;SDS011;64453;51.944;9.796;2023-10-31T01:17:34;3.80;;;2.97;;
75818;SDS011;64453;51.944;9.796;2023-10-31T01:20:01;4.27;;;3.97;;
75818;SDS011;64453;51.944;9.796;2023-10-31T01:22:29;3.70;;;3.40;;
75818;SDS011;64453;51.944;9.796;2023-10-31T01:24:56;3.47;;;3.20;;
75818;SDS011;64453;51.944;9.796;2023-10-31T01:27:23;2.97;;;2.77;;
75818;SDS011;64453;51.944;9.796;2023-10-31T01:29:50;3.10;;;2.90;;
75818;SDS011;64453;51.944;9.796;2023-10-31T01:32:17;3.37;;;3.10;;
75818;SDS011;64453;51.944;9.796;2023-10-31T01:34:45;3.03;;;2.80;;
75818;SDS011;64453;51.944;9.796;2023-10-31T01:37:12;3.30;;;3.00;;
75818;SDS011;64453;51.944;9.796;2023-10-31T01:39:40;3.90;;;3.40;;
75818;SDS011;64453;51.944;9.796;2023-10-31T01:42:07;4.87;;;4.40;;
75818;SDS011;64453;51.944;9.796;2023-10-31T01:44:34;3.20;;;3.00;;
75818;SDS011;64453;51.944;9.796;2023-10-31T01:47:01;3.83;;;3.40;;
75818;SDS011;64453;51.944;9.796;2023-10-31T01:49:28;3.40;;;3.10;;
75818;SDS011;64453;51.944;9.796;2023-10-31T01:51:57;3.33;;;3.13;;
75818;SDS011;64453;51.944;9.796;2023-10-31T01:54:24;2.97;;;2.73;;
75818;SDS011;64453;51.944;9.796;2023-10-31T01:56:51;2.80;;;2.60;;
75818;SDS011;64453;51.944;9.796;2023-10-31T01:59:23;3.20;;;3.00;;
75818;SDS011;64453;51.944;9.796;2023-10-31T02:01:50;3.53;;;3.23;;
75818;SDS011;64453;51.944;9.796;2023-10-31T02:04:17;3.03;;;2.83;;
75818;SDS011;64453;51.944;9.796;2023-10-31T02:06:44;3.27;;;3.07;;
75818;SDS011;64453;51.944;9.796;2023-10-31T02:09:13;2.97;;;2.87;;
75818;SDS011;64453;51.944;9.796;2023-10-31T02:11:40;2.70;;;2.50;;
75818;SDS011;64453;51.944;9.796;2023-10-31T02:14:07;3.30;;;3.00;;
75818;SDS011;64453;51.944;9.796;2023-10-31T02:16:34;3.17;;;2.90;;
75818;SDS011;64453;51.944;9.796;2023-10-31T02:19:01;3.10;;;2.93;;
75818;SDS011;64453;51.944;9.796;2023-10-31T02:21:29;3.80;;;3.50;;
75818;SDS011;64453;51.944;9.796;2023-10-31T02:23:59;3.30;;;3.10;;
75818;SDS011;64453;51.944;9.796;2023-10-31T02:26:28;3.00;;;2.80;;
75818;SDS011;64453;51.944;9.796;2023-10-31T02:28:56;3.13;;;2.93;;
75818;SDS011;64453;51.944;9.796;2023-10-31T02:31:23;9.60;;;3.50;;
75818;SDS011;64453;51.944;9.796;2023-10-31T02:33:50;2.77;;;2.67;;
75818;SDS011;64453;51.944;9.796;2023-10-31T02:36:18;3.60;;;3.30;;
75818;SDS011;64453;51.944;9.796;2023-10-31T02:38:45;3.40;;;3.20;;
75818;SDS011;64453;51.944;9.796;2023-10-31T02:41:14;8.63;;;3.10;;
75818;SDS011;64453;51.944;9.796;2023-10-31T02:43:42;3.33;;;3.13;;
75818;SDS011;64453;51.944;9.796;2023-10-31T02:46:09;3.20;;;3.00;;
75818;SDS011;64453;51.944;9.796;2023-10-31T02:48:37;2.97;;;2.77;;
75818;SDS011;64453;51.944;9.796;2023-10-31T02:51:05;3.40;;;3.10;;
75818;SDS011;64453;51.944;9.796;2023-10-31T02:53:32;3.33;;;2.90;;
75818;SDS011;64453;51.944;9.796;2023-10-31T02:56:00;3.17;;;3.03;;
75818;SDS011;64453;51.944;9.796;2023-10-31T02:58:29;2.87;;;2.70;;
75818;SDS011;64453;51.944;9.796;2023-10-31T03:00:56;2.60;;;2.10;;
75818;SDS011;64453;51.944;9.796;2023-10-31T03:03:23;1.70;;;1.60;;
75818;SDS011;64453;51.944;9.796;2023-10-31T03:05:50;4.10;;;1.80;;
75818;SDS011;64453;51.944;9.796;2023-10-31T03:08:17;1.40;;;1.40;;
75818;SDS011;64453;51.944;9.796;2023-10-31T03:10:46;1.37;;;1.27;;
75818;SDS011;64453;51.944;9.796;2023-10-31T03:13:16;1.70;;;1.10;;
75818;SDS011;64453;51.944;9.796;2023-10-31T03:15:45;0.93;;;0.93;;
75818;SDS011;64453;51.944;9.796;2023-10-31T03:18:12;1.20;;;1.20;;
75818;SDS011;64453;51.944;9.796;2023-10-31T03:20:40;1.37;;;1.00;;
75818;SDS011;64453;51.944;9.796;2023-10-31T03:23:10;1.73;;;1.00;;
75818;SDS011;64453;51.944;9.796;2023-10-31T03:25:37;0.80;;;0.80;;
75818;SDS011;64453;51.944;9.796;2023-10-31T03:28:04;0.70;;;0.60;;
75818;SDS011;64453;51.944;9.796;2023-10-31T03:30:35;0.60;;;0.60;;
75818;SDS011;64453;51.944;9.796;2023-10-31T03:33:03;0.43;;;0.43;;
75818;SDS011;64453;51.944;9.796;2023-10-31T03:35:31;0.40;;;0.40;;
75818;SDS011;64453;51.944;9.796;2023-10-31T03:37:58;0.40;;;0.40;;
75818;SDS011;64453;51.944;9.796;2023-10-31T03:40:25;1.80;;;0.60;;
75818;SDS011;64453;51.944;9.796;2023-10-31T03:42:51;0.50;;;0.50;;
75818;SDS011;64453;51.944;9.796;2023-10-31T03:45:19;0.77;;;0.60;;
75818;SDS011;64453;51.944;9.796;2023-10-31T03:47:46;1.13;;;0.50;;
75818;SDS011;64453;51.944;9.796;2023-10-31T03:50:14;0.40;;;0.40;;
75818;SDS011;64453;51.944;9.796;2023-10-31T03:52:41;0.40;;;0.40;;
75818;SDS011;64453;51.944;9.796;2023-10-31T03:55:08;0.50;;;0.50;;
75818;SDS011;64453;51.944;9.796;2023-10-31T03:57:35;0.50;;;0.50;;
75818;SDS011;64453;51.944;9.796;2023-10-31T04:00:03;0.80;;;0.80;;
75818;SDS011;64453;51.944;9.796;2023-10-31T04:02:32;0.60;;;0.60;;
75818;SDS011;64453;51.944;9.796;2023-10-31T04:04:59;3.50;;;0.80;;
75818;SDS011;64453;51.944;9.796;2023-10-31T04:07:28;0.70;;;0.70;;
75818;SDS011;64453;51.944;9.796;2023-10-31T04:09:55;0.60;;;0.60;;
75818;SDS011;64453;51.944;9.796;2023-10-31T04:12:22;0.80;;;0.80;;
75818;SDS011;64453;51.944;9.796;2023-10-31T04:14:50;0.80;;;0.80;;
75818;SDS011;64453;51.944;9.796;2023-10-31T04:17:17;1.83;;;0.90;;
75818;SDS011;64453;51.944;9.796;2023-10-31T04:19:43;0.80;;;0.70;;
75818;SDS011;64453;51.944;9.796;2023-10-31T04:22:11;0.90;;;0.90;;
75818;SDS011;64453;51.944;9.796;2023-10-31T04:24:39;2.20;;;0.70;;
75818;SDS011;64453;51.944;9.796;2023-10-31T04:27:07;0.90;;;0.90;;
75818;SDS011;64453;51.944;9.796;2023-10-31T04:29:33;0.83;;;0.77;;
75818;SDS011;64453;51.944;9.796;2023-10-31T04:32:01;1.97;;;0.80;;
75818;SDS011;64453;51.944;9.796;2023-10-31T04:34:28;0.97;;;0.97;;
75818;SDS011;64453;51.944;9.796;2023-10-31T04:36:55;0.80;;;0.67;;
75818;SDS011;64453;51.944;9.796;2023-10-31T04:39:22;0.90;;;0.90;;
75818;SDS011;64453;51.944;9.796;2023-10-31T04:41:51;0.87;;;0.87;;
75818;SDS011;64453;51.944;9.796;2023-10-31T04:44:18;0.70;;;0.70;;
75818;SDS011;64453;51.944;9.796;2023-10-31T04:46:45;0.87;;;0.80;;
75818;SDS011;64453;51.944;9.796;2023-10-31T04:49:12;0.77;;;0.77;;
75818;SDS011;64453;51.944;9.796;2023-10-31T04:51:40;1.37;;;0.83;;
75818;SDS011;64453;51.944;9.796;2023-10-31T04:54:07;2.07;;;0.90;;
75818;SDS011;64453;51.944;9.796;2023-10-31T04:56:34;0.70;;;0.70;;
75818;SDS011;64453;51.944;9.796;2023-10-31T04:59:04;1.03;;;1.03;;
75818;SDS011;64453;51.944;9.796;2023-10-31T05:01:31;4.47;;;0.80;;
75818;SDS011;64453;51.944;9.796;2023-10-31T05:03:58;0.80;;;0.80;;
75818;SDS011;64453;51.944;9.796;2023-10-31T05:06:25;1.10;;;0.90;;
75818;SDS011;64453;51.944;9.796;2023-10-31T05:08:51;1.27;;;1.20;;
75818;SDS011;64453;51.944;9.796;2023-10-31T05:11:19;4.30;;;0.90;;
75818;SDS011;64453;51.944;9.796;2023-10-31T05:13:46;2.00;;;1.47;;
75818;SDS011;64453;51.944;9.796;2023-10-31T05:16:14;1.13;;;1.10;;
75818;SDS011;64453;51.944;9.796;2023-10-31T05:18:41;1.27;;;1.27;;
75818;SDS011;64453;51.944;9.796;2023-10-31T05:21:08;1.13;;;1.13;;
75818;SDS011;64453;51.944;9.796;2023-10-31T05:23:35;2.37;;;1.63;;
75818;SDS011;64453;51.944;9.796;2023-10-31T05:26:04;0.90;;;0.90;;
75818;SDS011;64453;51.944;9.796;2023-10-31T05:28:32;1.00;;;1.00;;
75818;SDS011;64453;51.944;9.796;2023-10-31T05:30:58;1.90;;;1.27;;
75818;SDS011;64453;51.944;9.796;2023-10-31T05:33:27;2.10;;;1.50;;
75818;SDS011;64453;51.944;9.796;2023-10-31T05:35:54;2.07;;;1.23;;
75818;SDS011;64453;51.944;9.796;2023-10-31T05:38:21;1.30;;;1.30;;
75818;SDS011;64453;51.944;9.796;2023-10-31T05:40:48;2.13;;;1.13;;
75818;SDS011;64453;51.944;9.796;2023-10-31T05:43:15;1.43;;;1.33;;
75818;SDS011;64453;51.944;9.796;2023-10-31T05:45:42;1.20;;;1.20;;
75818;SDS011;64453;51.944;9.796;2023-10-31T05:48:09;1.83;;;1.70;;
75818;SDS011;64453;51.944;9.796;2023-10-31T05:50:37;1.70;;;1.70;;
75818;SDS011;64453;51.944;9.796;2023-10-31T05:53:04;1.50;;;1.50;;
75818;SDS011;64453;51.944;9.796;2023-10-31T05:55:31;2.40;;;1.70;;
75818;SDS011;64453;51.944;9.796;2023-10-31T05:57:59;1.60;;;1.50;;
75818;SDS011;64453;51.944;9.796;2023-10-31T06:00:26;1.20;;;1.20;;
75818;SDS011;64453;51.944;9.796;2023-10-31T06:02:53;1.40;;;1.30;;
75818;SDS011;64453;51.944;9.796;2023-10-31T06:05:20;1.13;;;1.10;;
75818;SDS011;64453;51.944;9.796;2023-10-31T06:07:48;1.30;;;1.20;;
75818;SDS011;64453;51.944;9.796;2023-10-31T06:10:15;1.30;;;1.30;;
75818;SDS011;64453;51.944;9.796;2023-10-31T06:12:42;1.30;;;1.30;;
75818;SDS011;64453;51.944;9.796;2023-10-31T06:15:10;1.23;;;1.13;;
75818;SDS011;64453;51.944;9.796;2023-10-31T06:17:37;1.20;;;1.20;;
75818;SDS011;64453;51.944;9.796;2023-10-31T06:20:06;3.13;;;1.80;;
75818;SDS011;64453;51.944;9.796;2023-10-31T06:22:36;1.80;;;1.60;;
75818;SDS011;64453;51.944;9.796;2023-10-31T06:25:05;2.10;;;2.00;;
75818;SDS011;64453;51.944;9.796;2023-10-31T06:27:32;3.90;;;2.50;;
75818;SDS011;64453;51.944;9.796;2023-10-31T06:29:59;2.10;;;2.00;;
75818;SDS011;64453;51.944;9.796;2023-10-31T06:32:27;2.20;;;2.10;;
75818;SDS011;64453;51.944;9.796;2023-10-31T06:34:54;3.97;;;2.63;;
75818;SDS011;64453;51.944;9.796;2023-10-31T06:37:21;3.13;;;2.90;;
75818;SDS011;64453;51.944;9.796;2023-10-31T06:39:48;2.77;;;2.67;;
75818;SDS011;64453;51.944;9.796;2023-10-31T06:42:17;2.77;;;2.67;;
75818;SDS011;64453;51.944;9.796;2023-10-31T06:44:43;2.90;;;2.70;;
75818;SDS011;64453;51.944;9.796;2023-10-31T06:47:10;2.63;;;2.53;;
75818;SDS011;64453;51.944;9.796;2023-10-31T06:49:37;2.37;;;2.27;;
75818;SDS011;64453;51.944;9.796;2023-10-31T06:52:05;2.53;;;2.43;;
75818;SDS011;64453;51.944;9.796;2023-10-31T06:54:32;2.87;;;2.77;;
75818;SDS011;64453;51.944;9.796;2023-10-31T06:57:00;3.63;;;3.43;;
75818;SDS011;64453;51.944;9.796;2023-10-31T06:59:29;2.93;;;2.80;;
75818;SDS011;64453;51.944;9.796;2023-10-31T07:01:56;2.63;;;2.53;;
75818;SDS011;64453;51.944;9.796;2023-10-31T07:04:23;3.60;;;3.40;;
75818;SDS011;64453;51.944;9.796;2023-10-31T07:06:50;3.70;;;3.40;;
75818;SDS011;64453;51.944;9.796;2023-10-31T07:09:22;3.33;;;3.10;;
75818;SDS011;64453;51.944;9.796;2023-10-31T07:11:49;3.87;;;2.67;;
75818;SDS011;64453;51.944;9.796;2023-10-31T07:14:16;3.47;;;3.03;;
75818;SDS011;64453;51.944;9.796;2023-10-31T07:16:44;2.50;;;2.40;;
75818;SDS011;64453;51.944;9.796;2023-10-31T07:19:11;2.70;;;2.50;;
75818;SDS011;64453;51.944;9.796;2023-10-31T07:21:39;2.20;;;2.10;;
75818;SDS011;64453;51.944;9.796;2023-10-31T07:24:06;2.47;;;2.37;;
75818;SDS011;64453;51.944;9.796;2023-10-31T07:26:34;2.67;;;2.47;;
75818;SDS011;64453;51.944;9.796;2023-10-31T07:29:02;2.83;;;2.63;;
75818;SDS011;64453;51.944;9.796;2023-10-31T07:31:29;2.30;;;2.20;;
75818;SDS011;64453;51.944;9.796;2023-10-31T07:33:57;2.10;;;2.00;;
75818;SDS011;64453;51.944;9.796;2023-10-31T07:36:24;2.10;;;2.00;;
75818;SDS011;64453;51.944;9.796;2023-10-31T07:38:51;2.20;;;2.10;;
75818;SDS011;64453;51.944;9.796;2023-10-31T07:41:18;1.90;;;1.80;;
75818;SDS011;64453;51.944;9.796;2023-10-31T07:43:45;1.80;;;1.80;;
75818;SDS011;64453;51.944;9.796;2023-10-31T07:46:13;2.10;;;1.77;;
75818;SDS011;64453;51.944;9.796;2023-10-31T07:48:40;3.50;;;2.10;;
75818;SDS011;64453;51.944;9.796;2023-10-31T07:51:08;1.90;;;1.90;;
75818;SDS011;64453;51.944;9.796;2023-10-31T07:53:36;2.10;;;2.00;;
75818;SDS011;64453;51.944;9.796;2023-10-31T07:56:03;2.27;;;2.17;;
75818;SDS011;64453;51.944;9.796;2023-10-31T07:58:31;2.00;;;1.90;;
75818;SDS011;64453;51.944;9.796;2023-10-31T08:00:59;2.80;;;1.80;;
75818;SDS011;64453;51.944;9.796;2023-10-31T08:03:27;2.17;;;1.97;;
75818;SDS011;64453;51.944;9.796;2023-10-31T08:05:57;2.13;;;1.70;;
75818;SDS011;64453;51.944;9.796;2023-10-31T08:08:27;1.80;;;1.70;;
75818;SDS011;64453;51.944;9.796;2023-10-31T08:10:54;1.50;;;1.40;;
75818;SDS011;64453;51.944;9.796;2023-10-31T08:13:24;3.97;;;1.80;;
75818;SDS011;64453;51.944;9.796;2023-10-31T08:15:51;1.80;;;1.60;;
75818;SDS011;64453;51.944;9.796;2023-10-31T08:18:19;1.90;;;1.80;;
75818;SDS011;64453;51.944;9.796;2023-10-31T08:20:48;2.53;;;1.60;;
75818;SDS011;64453;51.944;9.796;2023-10-31T08:23:16;1.60;;;1.50;;
75818;SDS011;64453;51.944;9.796;2023-10-31T08:25:44;1.47;;;1.47;;
75818;SDS011;64453;51.944;9.796;2023-10-31T08:28:11;1.63;;;1.53;;
75818;SDS011;64453;51.944;9.796;2023-10-31T08:30:38;1.90;;;1.80;;
75818;SDS011;64453;51.944;9.796;2023-10-31T08:33:05;1.60;;;1.43;;
75818;SDS011;64453;51.944;9.796;2023-10-31T08:35:32;1.27;;;1.27;;
75818;SDS011;64453;51.944;9.796;2023-10-31T08:38:00;1.50;;;1.40;;
75818;SDS011;64453;51.944;9.796;2023-10-31T08:40:27;1.57;;;1.43;;
75818;SDS011;64453;51.944;9.796;2023-10-31T08:42:55;1.90;;;1.80;;
75818;SDS011;64453;51.944;9.796;2023-10-31T08:45:22;1.53;;;1.53;;
75818;SDS011;64453;51.944;9.796;2023-10-31T08:47:49;1.73;;;1.63;;
75818;SDS011;64453;51.944;9.796;2023-10-31T08:50:17;1.30;;;1.30;;
75818;SDS011;64453;51.944;9.796;2023-10-31T08:52:44;1.10;;;1.10;;
75818;SDS011;64453;51.944;9.796;2023-10-31T08:55:12;1.10;;;1.10;;
75818;SDS011;64453;51.944;9.796;2023-10-31T08:57:39;1.10;;;1.10;;
75818;SDS011;64453;51.944;9.796;2023-10-31T09:00:10;1.30;;;1.30;;
75818;SDS011;64453;51.944;9.796;2023-10-31T09:02:38;1.20;;;1.10;;
75818;SDS011;64453;51.944;9.796;2023-10-31T09:05:05;1.47;;;0.90;;
75818;SDS011;64453;51.944;9.796;2023-10-31T09:07:33;2.50;;;1.93;;
75818;SDS011;64453;51.944;9.796;2023-10-31T09:10:00;1.33;;;1.20;;
75818;SDS011;64453;51.944;9.796;2023-10-31T09:12:28;3.33;;;0.97;;
75818;SDS011;64453;51.944;9.796;2023-10-31T09:14:55;0.70;;;0.70;;
75818;SDS011;64453;51.944;9.796;2023-10-31T09:17:24;0.60;;;0.60;;
75818;SDS011;64453;51.944;9.796;2023-10-31T09:19:51;1.00;;;1.00;;
75818;SDS011;64453;51.944;9.796;2023-10-31T09:22:19;0.70;;;0.70;;
75818;SDS011;64453;51.944;9.796;2023-10-31T09:24:46;0.70;;;0.67;;
75818;SDS011;64453;51.944;9.796;2023-10-31T09:27:13;1.07;;;0.83;;
75818;SDS011;64453;51.944;9.796;2023-10-31T09:29:40;1.67;;;0.70;;
75818;SDS011;64453;51.944;9.796;2023-10-31T09:32:09;1.57;;;0.80;;
75818;SDS011;64453;51.944;9.796;2023-10-31T09:34:37;0.60;;;0.60;;
75818;SDS011;64453;51.944;9.796;2023-10-31T09:37:05;1.03;;;0.73;;
75818;SDS011;64453;51.944;9.796;2023-10-31T09:39:32;0.47;;;0.47;;
75818;SDS011;64453;51.944;9.796;2023-10-31T09:41:59;2.83;;;0.57;;
75818;SDS011;64453;51.944;9.796;2023-10-31T09:44:27;0.60;;;0.60;;
75818;SDS011;64453;51.944;9.796;2023-10-31T09:46:55;1.23;;;0.70;;
75818;SDS011;64453;51.944;9.796;2023-10-31T09:49:23;1.07;;;1.07;;
75818;SDS011;64453;51.944;9.796;2023-10-31T09:51:52;0.83;;;0.50;;
75818;SDS011;64453;51.944;9.796;2023-10-31T09:54:20;0.50;;;0.50;;
75818;SDS011;64453;51.944;9.796;2023-10-31T09:56:49;1.07;;;0.50;;
75818;SDS011;64453;51.944;9.796;2023-10-31T09:59:16;0.50;;;0.40;;
75818;SDS011;64453;51.944;9.796;2023-10-31T10:01:44;0.30;;;0.30;;
75818;SDS011;64453;51.944;9.796;2023-10-31T10:04:11;2.10;;;0.60;;
75818;SDS011;64453;51.944;9.796;2023-10-31T10:06:40;0.40;;;0.33;;
75818;SDS011;64453;51.944;9.796;2023-10-31T10:09:17;0.40;;;0.40;;
75818;SDS011;64453;51.944;9.796;2023-10-31T10:11:44;0.70;;;0.50;;
75818;SDS011;64453;51.944;9.796;2023-10-31T10:14:12;0.40;;;0.40;;
75818;SDS011;64453;51.944;9.796;2023-10-31T10:16:39;0.63;;;0.63;;
75818;SDS011;64453;51.944;9.796;2023-10-31T10:19:15;0.50;;;0.50;;
75818;SDS011;64453;51.944;9.796;2023-10-31T10:21:48;1.60;;;0.50;;
75818;SDS011;64453;51.944;9.796;2023-10-31T10:24:18;1.33;;;0.60;;
75818;SDS011;64453;51.944;9.796;2023-10-31T10:26:46;0.70;;;0.70;;
75818;SDS011;64453;51.944;9.796;2023-10-31T10:29:14;1.47;;;0.50;;
75818;SDS011;64453;51.944;9.796;2023-10-31T10:31:42;0.40;;;0.40;;
75818;SDS011;64453;51.944;9.796;2023-10-31T10:34:13;0.60;;;0.60;;
75818;SDS011;64453;51.944;9.796;2023-10-31T10:36:45;1.13;;;0.60;;
75818;SDS011;64453;51.944;9.796;2023-10-31T10:39:18;0.70;;;0.60;;
75818;SDS011;64453;51.944;9.796;2023-10-31T10:41:50;0.90;;;0.70;;
75818;SDS011;64453;51.944;9.796;2023-10-31T10:44:25;0.60;;;0.60;;
75818;SDS011;64453;51.944;9.796;2023-10-31T10:46:58;0.70;;;0.70;;
75818;SDS011;64453;51.944;9.796;2023-10-31T10:49:28;0.70;;;0.70;;
75818;SDS011;64453;51.944;9.796;2023-10-31T10:52:01;0.70;;;0.70;;
75818;SDS011;64453;51.944;9.796;2023-10-31T10:54:45;1.17;;;1.17;;
75818;SDS011;64453;51.944;9.796;2023-10-31T10:57:22;2.20;;;1.33;;
75818;SDS011;64453;51.944;9.796;2023-10-31T11:00:01;1.80;;;1.70;;
75818;SDS011;64453;51.944;9.796;2023-10-31T11:02:33;2.37;;;1.70;;
75818;SDS011;64453;51.944;9.796;2023-10-31T11:05:04;1.60;;;1.50;;
75818;SDS011;64453;51.944;9.796;2023-10-31T11:07:33;1.50;;;1.40;;
75818;SDS011;64453;51.944;9.796;2023-10-31T11:10:03;1.90;;;1.80;;
75818;SDS011;64453;51.944;9.796;2023-10-31T11:12:31;2.87;;;1.73;;
75818;SDS011;64453;51.944;9.796;2023-10-31T11:14:59;2.67;;;2.20;;
75818;SDS011;64453;51.944;9.796;2023-10-31T11:17:29;2.40;;;2.20;;
75818;SDS011;64453;51.944;9.796;2023-10-31T11:19:59;1.93;;;1.83;;
75818;SDS011;64453;51.944;9.796;2023-10-31T11:22:36;3.00;;;2.73;;
75818;SDS011;64453;51.944;9.796;2023-10-31T11:25:06;2.83;;;2.63;;
75818;SDS011;64453;51.944;9.796;2023-10-31T11:27:34;4.17;;;3.13;;
75818;SDS011;64453;51.944;9.796;2023-10-31T11:30:04;2.50;;;2.40;;
75818;SDS011;64453;51.944;9.796;2023-10-31T11:32:33;2.37;;;2.27;;
75818;SDS011;64453;51.944;9.796;2023-10-31T11:35:00;3.00;;;2.80;;
75818;SDS011;64453;51.944;9.796;2023-10-31T11:37:31;4.33;;;3.23;;
75818;SDS011;64453;51.944;9.796;2023-10-31T11:40:17;2.87;;;2.67;;
75818;SDS011;64453;51.944;9.796;2023-10-31T11:42:48;2.90;;;2.70;;
75818;SDS011;64453;51.944;9.796;2023-10-31T11:45:26;3.03;;;2.83;;
75818;SDS011;64453;51.944;9.796;2023-10-31T11:47:54;2.83;;;2.70;;
75818;SDS011;64453;51.944;9.796;2023-10-31T11:50:22;2.67;;;2.57;;
75818;SDS011;64453;51.944;9.796;2023-10-31T11:52:59;4.70;;;2.87;;
75818;SDS011;64453;51.944;9.796;2023-10-31T11:55:31;3.23;;;2.37;;
75818;SDS011;64453;51.944;9.796;2023-10-31T12:00:44;4.07;;;3.80;;
75818;SDS011;64453;51.944;9.796;2023-10-31T12:03:11;4.00;;;3.57;;
75818;SDS011;64453;51.944;9.796;2023-10-31T12:05:39;3.20;;;3.00;;
75818;SDS011;64453;51.944;9.796;2023-10-31T12:08:06;3.23;;;3.03;;
75818;SDS011;64453;51.944;9.796;2023-10-31T12:10:34;2.47;;;2.37;;
75818;SDS011;64453;51.944;9.796;2023-10-31T12:13:01;2.83;;;2.63;;
75818;SDS011;64453;51.944;9.796;2023-10-31T12:15:28;2.70;;;2.50;;
75818;SDS011;64453;51.944;9.796;2023-10-31T12:17:58;2.60;;;2.40;;
75818;SDS011;64453;51.944;9.796;2023-10-31T12:20:25;2.10;;;2.00;;
75818;SDS011;64453;51.944;9.796;2023-10-31T12:23:02;2.53;;;2.43;;
75818;SDS011;64453;51.944;9.796;2023-10-31T12:25:30;2.67;;;2.47;;
75818;SDS011;64453;51.944;9.796;2023-10-31T12:28:01;2.50;;;2.40;;
75818;SDS011;64453;51.944;9.796;2023-10-31T12:30:28;2.20;;;2.00;;
75818;SDS011;64453;51.944;9.796;2023-10-31T12:32:55;2.17;;;2.07;;
75818;SDS011;64453;51.944;9.796;2023-10-31T12:35:23;4.33;;;1.90;;
75818;SDS011;64453;51.944;9.796;2023-10-31T12:37:52;2.17;;;2.07;;
75818;SDS011;64453;51.944;9.796;2023-10-31T12:40:21;2.13;;;2.03;;
75818;SDS011;64453;51.944;9.796;2023-10-31T12:42:49;3.03;;;2.73;;
75818;SDS011;64453;51.944;9.796;2023-10-31T12:45:18;2.30;;;2.20;;
75818;SDS011;64453;51.944;9.796;2023-10-31T12:47:59;2.20;;;2.10;;
75818;SDS011;64453;51.944;9.796;2023-10-31T12:50:27;1.93;;;1.87;;
75818;SDS011;64453;51.944;9.796;2023-10-31T12:52:55;2.13;;;2.03;;
75818;SDS011;64453;51.944;9.796;2023-10-31T12:55:24;4.43;;;2.60;;
75818;SDS011;64453;51.944;9.796;2023-10-31T12:57:53;2.20;;;2.10;;
75818;SDS011;64453;51.944;9.796;2023-10-31T13:00:22;2.30;;;2.20;;
75818;SDS011;64453;51.944;9.796;2023-10-31T13:02:58;3.00;;;2.60;;
75818;SDS011;64453;51.944;9.796;2023-10-31T13:05:27;3.50;;;3.30;;
75818;SDS011;64453;51.944;9.796;2023-10-31T13:07:55;2.87;;;2.67;;
75818;SDS011;64453;51.944;9.796;2023-10-31T13:10:25;2.10;;;2.00;;
75818;SDS011;64453;51.944;9.796;2023-10-31T13:12:53;2.60;;;2.00;;
75818;SDS011;64453;51.944;9.796;2023-10-31T13:15:22;2.83;;;2.63;;
75818;SDS011;64453;51.944;9.796;2023-10-31T13:17:50;1.93;;;1.93;;
75818;SDS011;64453;51.944;9.796;2023-10-31T13:20:19;2.03;;;1.93;;
75818;SDS011;64453;51.944;9.796;2023-10-31T13:22:47;2.97;;;2.77;;
75818;SDS011;64453;51.944;9.796;2023-10-31T13:25:15;2.00;;;1.90;;
75818;SDS011;64453;51.944;9.796;2023-10-31T13:27:43;2.73;;;2.20;;
75818;SDS011;64453;51.944;9.796;2023-10-31T13:30:16;2.60;;;2.40;;
75818;SDS011;64453;51.944;9.796;2023-10-31T13:32:45;2.30;;;2.20;;
75818;SDS011;64453;51.944;9.796;2023-10-31T13:35:12;2.60;;;2.50;;
75818;SDS011;64453;51.944;9.796;2023-10-31T13:37:40;5.60;;;2.10;;
75818;SDS011;64453;51.944;9.796;2023-10-31T13:40:08;3.20;;;2.43;;
75818;SDS011;64453;51.944;9.796;2023-10-31T13:42:36;2.20;;;2.10;;
75818;SDS011;64453;51.944;9.796;2023-10-31T13:45:03;2.87;;;2.67;;
75818;SDS011;64453;51.944;9.796;2023-10-31T13:47:31;2.90;;;2.77;;
75818;SDS011;64453;51.944;9.796;2023-10-31T13:50:00;2.67;;;2.57;;
75818;SDS011;64453;51.944;9.796;2023-10-31T13:52:27;4.03;;;3.07;;
75818;SDS011;64453;51.944;9.796;2023-10-31T13:54:54;2.47;;;2.37;;
75818;SDS011;64453;51.944;9.796;2023-10-31T13:57:21;3.00;;;1.93;;
75818;SDS011;64453;51.944;9.796;2023-10-31T13:59:49;3.10;;;2.63;;
75818;SDS011;64453;51.944;9.796;2023-10-31T14:02:17;4.23;;;2.60;;
75818;SDS011;64453;51.944;9.796;2023-10-31T14:04:44;2.17;;;2.07;;
75818;SDS011;64453;51.944;9.796;2023-10-31T14:07:13;2.63;;;2.43;;
75818;SDS011;64453;51.944;9.796;2023-10-31T14:09:48;3.03;;;2.70;;
75818;SDS011;64453;51.944;9.796;2023-10-31T14:12:15;3.03;;;2.40;;
75818;SDS011;64453;51.944;9.796;2023-10-31T14:14:42;2.87;;;2.77;;
75818;SDS011;64453;51.944;9.796;2023-10-31T14:17:09;3.10;;;2.90;;
75818;SDS011;64453;51.944;9.796;2023-10-31T14:19:38;4.10;;;2.80;;
75818;SDS011;64453;51.944;9.796;2023-10-31T14:22:05;3.10;;;2.90;;
75818;SDS011;64453;51.944;9.796;2023-10-31T14:24:33;3.13;;;2.93;;
75818;SDS011;64453;51.944;9.796;2023-10-31T14:27:00;2.80;;;2.60;;
75818;SDS011;64453;51.944;9.796;2023-10-31T14:29:27;3.30;;;3.10;;
75818;SDS011;64453;51.944;9.796;2023-10-31T14:31:54;3.90;;;3.67;;
75818;SDS011;64453;51.944;9.796;2023-10-31T14:34:22;3.60;;;3.30;;
75818;SDS011;64453;51.944;9.796;2023-10-31T14:36:49;3.43;;;3.23;;
75818;SDS011;64453;51.944;9.796;2023-10-31T14:39:16;3.27;;;3.07;;
75818;SDS011;64453;51.944;9.796;2023-10-31T14:41:45;3.13;;;2.90;;
75818;SDS011;64453;51.944;9.796;2023-10-31T14:44:12;4.60;;;4.30;;
75818;SDS011;64453;51.944;9.796;2023-10-31T14:46:39;3.10;;;2.90;;
75818;SDS011;64453;51.944;9.796;2023-10-31T14:49:06;3.83;;;3.40;;
75818;SDS011;64453;51.944;9.796;2023-10-31T14:51:33;4.20;;;3.00;;
75818;SDS011;64453;51.944;9.796;2023-10-31T14:54:00;2.77;;;2.63;;
75818;SDS011;64453;51.944;9.796;2023-10-31T14:56:27;4.07;;;3.77;;